createdAt,value
2023-08-31T00:00:15.904Z,3.822579
2023-08-31T00:05:15.787Z,3.158517
2023-08-31T00:10:15.952Z,2.475177
2023-08-31T00:15:16.419Z,2.817298
2023-08-31T00:20:16.911Z,3.629009
2023-08-31T00:25:16.060Z,1.988023
2023-08-31T00:30:16.385Z,1.669746
2023-08-31T00:35:16.550Z,1.059397
2023-08-31T00:40:16.159Z,0.973344
2023-08-31T00:45:15.794Z,0.982901
2023-08-31T00:50:15.780Z,0.843660
2023-08-31T00:55:15.948Z,0.819691
2023-08-31T01:00:16.161Z,0.926919
2023-08-31T01:05:16.036Z,0.968310
2023-08-31T01:10:16.052Z,0.617703
2023-08-31T01:15:17.156Z,0.405412
2023-08-31T01:20:17.360Z,0.350276
2023-08-31T01:25:15.817Z,0.305515
2023-08-31T01:30:16.122Z,0.287002
2023-08-31T01:35:16.361Z,0.280854
2023-08-31T01:40:15.799Z,0.370125
2023-08-31T01:45:16.156Z,0.384528
2023-08-31T01:50:16.572Z,0.362422
2023-08-31T01:55:15.874Z,0.348050
2023-08-31T02:00:16.345Z,0.279090
2023-08-31T02:05:16.607Z,0.254024
2023-08-31T02:10:15.747Z,0.213653
2023-08-31T02:15:16.096Z,0.190721
2023-08-31T02:20:17.058Z,0.170115
2023-08-31T02:25:16.020Z,0.138964
2023-08-31T02:30:16.301Z,0.098049
2023-08-31T02:35:15.867Z,0.068683
2023-08-31T02:40:16.253Z,0.057805
2023-08-31T02:45:16.225Z,0.053420
2023-08-31T02:50:16.160Z,0.049665
2023-08-31T02:55:15.702Z,0.044473
2023-08-31T03:00:15.949Z,0.042777
2023-08-31T03:05:15.872Z,0.040479
2023-08-31T03:10:16.083Z,0.039674
2023-08-31T03:15:16.209Z,0.038424
2023-08-31T03:20:16.082Z,0.039364
2023-08-31T03:25:15.877Z,0.040226
2023-08-31T03:30:15.847Z,0.039779
2023-08-31T03:35:16.055Z,0.038810
2023-08-31T03:40:16.413Z,0.038219
2023-08-31T03:45:16.506Z,0.038324
2023-08-31T03:50:15.982Z,0.039588
2023-08-31T03:55:17.245Z,0.039158
2023-08-31T04:00:16.298Z,0.039588
2023-08-31T04:05:16.362Z,0.040571
2023-08-31T04:10:17.108Z,0.039520
2023-08-31T04:15:16.795Z,0.039681
2023-08-31T04:20:15.799Z,0.039774
2023-08-31T04:25:15.798Z,0.038810
2023-08-31T04:30:17.151Z,0.037888
2023-08-31T04:35:16.188Z,0.038079
2023-08-31T04:40:15.733Z,0.038974
2023-08-31T04:45:16.108Z,0.039038
2023-08-31T04:50:15.829Z,0.041402
2023-08-31T04:55:16.048Z,0.038755
2023-08-31T05:00:15.705Z,0.039201
2023-08-31T05:05:16.022Z,0.039770
2023-08-31T05:10:16.605Z,0.038015
2023-08-31T05:15:15.997Z,0.038910
2023-08-31T05:20:16.641Z,0.037504
2023-08-31T05:25:16.197Z,0.037850
2023-08-31T05:30:16.420Z,0.037977
2023-08-31T05:35:15.717Z,0.038718
2023-08-31T05:40:16.426Z,0.037529
2023-08-31T05:45:16.269Z,0.037392
2023-08-31T05:50:16.077Z,0.037583
2023-08-31T05:55:16.119Z,0.037289
2023-08-31T06:00:15.983Z,0.037926
2023-08-31T06:05:15.960Z,0.038155
2023-08-31T06:10:15.817Z,0.038282
2023-08-31T06:15:15.722Z,0.037732
2023-08-31T06:20:16.233Z,0.038479
2023-08-31T06:25:16.792Z,0.037233
2023-08-31T06:30:16.473Z,0.038015
2023-08-31T06:35:16.793Z,0.039613
2023-08-31T06:40:15.919Z,0.038782
2023-08-31T06:45:16.410Z,0.038335
2023-08-31T06:50:16.595Z,0.037721
2023-08-31T06:55:16.104Z,0.038727
2023-08-31T07:00:16.161Z,0.038627
2023-08-31T07:05:16.073Z,0.037685
2023-08-31T07:10:16.779Z,0.038910
2023-08-31T07:15:16.187Z,0.039868
2023-08-31T07:20:15.799Z,0.038938
2023-08-31T07:25:16.240Z,0.039293
2023-08-31T07:30:16.152Z,0.039038
2023-08-31T07:35:16.260Z,0.038517
2023-08-31T07:40:16.253Z,0.038181
2023-08-31T07:45:16.301Z,0.037465
2023-08-31T07:50:16.283Z,0.039520
2023-08-31T07:55:16.203Z,0.037568
2023-08-31T08:00:16.606Z,0.037273
2023-08-31T08:05:16.096Z,0.037952
2023-08-31T08:10:15.884Z,0.037799
2023-08-31T08:15:16.244Z,0.037657
2023-08-31T08:20:15.974Z,0.037900
2023-08-31T08:25:15.890Z,0.036947
2023-08-31T08:30:16.420Z,0.038245
2023-08-31T08:35:15.798Z,0.037952
2023-08-31T08:40:17.024Z,0.038297
2023-08-31T08:45:16.836Z,0.036376
2023-08-31T08:50:17.089Z,0.036820
2023-08-31T08:55:16.394Z,0.037688
2023-08-31T09:00:16.148Z,0.037951
2023-08-31T09:05:15.899Z,0.040288
2023-08-31T09:10:16.345Z,0.037989
2023-08-31T09:15:15.945Z,0.037265
2023-08-31T09:20:16.307Z,0.037241
2023-08-31T09:25:16.077Z,0.038655
2023-08-31T09:30:17.246Z,0.038241
2023-08-31T09:35:19.362Z,0.037939
2023-08-31T09:40:16.150Z,0.038486
2023-08-31T09:45:15.798Z,0.037762
2023-08-31T09:50:16.162Z,0.037233
2023-08-31T09:55:15.952Z,0.038356
2023-08-31T10:00:15.919Z,0.039102
2023-08-31T10:05:15.917Z,0.039932
2023-08-31T10:10:16.970Z,0.038746
2023-08-31T10:15:16.957Z,0.039514
2023-08-31T10:20:16.007Z,0.037913
2023-08-31T10:25:16.233Z,0.039593
2023-08-31T10:30:15.972Z,0.038664
2023-08-31T10:35:16.245Z,0.038372
2023-08-31T10:40:17.064Z,0.038573
2023-08-31T10:45:15.918Z,0.039779
2023-08-31T10:50:16.455Z,0.039172
2023-08-31T10:55:16.816Z,0.038196
2023-08-31T11:00:16.250Z,0.039081
2023-08-31T11:05:16.189Z,0.038957
2023-08-31T11:10:16.440Z,0.039186
2023-08-31T11:15:15.778Z,0.037485
2023-08-31T11:20:15.966Z,0.038946
2023-08-31T11:25:15.954Z,0.040063
2023-08-31T11:30:16.096Z,0.039598
2023-08-31T11:35:15.941Z,0.038969
2023-08-31T11:40:16.284Z,0.039719
2023-08-31T11:45:16.434Z,0.036941
2023-08-31T11:50:15.869Z,0.037773
2023-08-31T11:55:16.360Z,0.037787
2023-08-31T12:00:16.906Z,0.038910
2023-08-31T12:05:16.882Z,0.038330
2023-08-31T12:10:16.630Z,0.037989
2023-08-31T12:15:17.021Z,0.037452
2023-08-31T12:20:16.399Z,0.037926
2023-08-31T12:25:15.792Z,0.037876
2023-08-31T12:30:17.066Z,0.038709
2023-08-31T12:35:16.022Z,0.039530
2023-08-31T12:40:15.854Z,0.039559
2023-08-31T12:45:16.268Z,0.039467
2023-08-31T12:50:15.788Z,0.039340
2023-08-31T12:55:15.982Z,0.040071
2023-08-31T13:00:15.844Z,0.038167
2023-08-31T13:05:16.263Z,0.039535
2023-08-31T13:10:16.063Z,0.040444
2023-08-31T13:15:15.816Z,0.044149
2023-08-31T13:20:15.956Z,0.048584
2023-08-31T13:25:15.975Z,0.053041
2023-08-31T13:30:15.863Z,0.060108
2023-08-31T13:35:15.736Z,0.075597
2023-08-31T13:40:16.931Z,0.096960
2023-08-31T13:45:16.294Z,0.119284
2023-08-31T13:50:16.266Z,0.144416
2023-08-31T13:55:17.392Z,0.193601
2023-08-31T14:00:16.043Z,0.273507
2023-08-31T14:05:16.211Z,0.356323
2023-08-31T14:10:16.004Z,0.380341
2023-08-31T14:15:16.535Z,0.431161
2023-08-31T14:20:16.828Z,0.323359
2023-08-31T14:25:15.786Z,0.267593
2023-08-31T14:30:16.594Z,0.219067
2023-08-31T14:35:17.451Z,0.217977
2023-08-31T14:40:15.819Z,0.283196
2023-08-31T14:45:16.055Z,0.383807
2023-08-31T14:50:15.814Z,0.488140
2023-08-31T14:55:15.783Z,0.572879
2023-08-31T15:00:16.273Z,0.613225
2023-08-31T15:05:16.442Z,0.679984
2023-08-31T15:10:16.010Z,0.749108
2023-08-31T15:15:15.831Z,0.824775
2023-08-31T15:20:16.669Z,0.970315
2023-08-31T15:25:15.942Z,1.108630
2023-08-31T15:30:16.040Z,1.313677
2023-08-31T15:35:15.886Z,1.655837
2023-08-31T15:40:16.183Z,1.953978
2023-08-31T15:45:16.377Z,1.553349
2023-08-31T15:50:16.781Z,1.492812
2023-08-31T15:55:16.316Z,1.488998
2023-08-31T16:00:16.337Z,1.582005
2023-08-31T16:05:16.084Z,1.496069
2023-08-31T16:10:15.907Z,1.499342
2023-08-31T16:15:15.754Z,1.505312
2023-08-31T16:20:16.075Z,1.594431
2023-08-31T16:25:16.328Z,1.754716
2023-08-31T16:30:16.226Z,1.963930
2023-08-31T16:35:16.068Z,2.175976
2023-08-31T16:40:16.204Z,2.398928
2023-08-31T16:45:16.733Z,2.583070
2023-08-31T16:50:16.309Z,2.846111
2023-08-31T16:55:16.259Z,2.834419
2023-08-31T17:00:17.145Z,2.413346
2023-08-31T17:05:16.452Z,2.185891
2023-08-31T17:10:16.000Z,2.632340
2023-08-31T17:15:16.456Z,2.947100
2023-08-31T17:20:16.569Z,2.947943
2023-08-31T17:25:16.332Z,2.439317
2023-08-31T17:30:16.172Z,2.275817
2023-08-31T17:35:15.910Z,2.586201
2023-08-31T17:40:16.277Z,2.749858
2023-08-31T17:45:16.254Z,2.539943
2023-08-31T17:50:16.544Z,2.399546
2023-08-31T17:55:16.309Z,2.309899
2023-08-31T18:00:16.380Z,2.226670
2023-08-31T18:05:16.620Z,2.190029
2023-08-31T18:10:16.281Z,2.419181
2023-08-31T18:15:15.947Z,3.015123
2023-08-31T18:20:16.195Z,3.357412
2023-08-31T18:25:16.615Z,3.108673
2023-08-31T18:30:16.175Z,2.950643
2023-08-31T18:35:16.378Z,2.907139
2023-08-31T18:40:16.372Z,2.928591
2023-08-31T18:45:15.777Z,3.055902
2023-08-31T18:50:15.768Z,2.976530
2023-08-31T18:55:16.135Z,2.987179
2023-08-31T19:00:15.884Z,3.049222
2023-08-31T19:05:15.877Z,3.123400
2023-08-31T19:10:16.028Z,2.982685
2023-08-31T19:15:16.177Z,3.071870
2023-08-31T19:20:16.428Z,3.265061
2023-08-31T19:25:16.310Z,3.686555
2023-08-31T19:30:15.951Z,3.424753
2023-08-31T19:35:39.131Z,2.882212
2023-08-31T19:40:15.760Z,2.606911
2023-08-31T19:45:16.283Z,2.525481
2023-08-31T19:50:16.058Z,2.335894
2023-08-31T19:55:16.032Z,2.211500
2023-08-31T20:00:16.781Z,2.305284
2023-08-31T20:05:16.191Z,2.296944
2023-08-31T20:10:16.053Z,2.937657
2023-08-31T20:15:16.217Z,3.460417
2023-08-31T20:20:16.267Z,3.169279
2023-08-31T20:25:16.325Z,3.352593
2023-08-31T20:30:15.809Z,3.667230
2023-08-31T20:35:15.933Z,3.510589
2023-08-31T20:40:16.421Z,3.275748
2023-08-31T20:45:15.855Z,2.899769
2023-08-31T20:50:16.271Z,2.846597
2023-08-31T20:55:16.428Z,2.828706
2023-08-31T21:00:16.573Z,2.985003
2023-08-31T21:05:16.460Z,2.741930
2023-08-31T21:10:16.546Z,2.685304
2023-08-31T21:15:15.915Z,2.457648
2023-08-31T21:20:15.961Z,2.300118
2023-08-31T21:25:15.888Z,2.703254
2023-08-31T21:30:16.099Z,3.143579
2023-08-31T21:35:15.755Z,4.453407
2023-08-31T21:40:16.029Z,5.342820
2023-08-31T21:45:15.980Z,5.316822
2023-08-31T21:50:15.988Z,4.311689
2023-08-31T21:55:16.059Z,5.331975
2023-08-31T22:00:16.004Z,4.302922
2023-08-31T22:05:16.549Z,4.452023
2023-08-31T22:10:15.958Z,4.986948
2023-08-31T22:15:16.083Z,5.477816
2023-08-31T22:20:15.902Z,6.028133
2023-08-31T22:25:17.536Z,4.447435
2023-08-31T22:30:16.943Z,5.193275
2023-08-31T22:35:17.406Z,4.552913
2023-08-31T22:40:16.184Z,4.492478
2023-08-31T22:45:17.298Z,3.041544
2023-08-31T22:50:16.137Z,3.481352
2023-08-31T22:55:15.867Z,4.022865
2023-08-31T23:00:17.447Z,4.420729
2023-08-31T23:05:15.746Z,3.500822
2023-08-31T23:10:23.120Z,2.395484
2023-08-31T23:15:16.251Z,3.210197
2023-08-31T23:20:16.027Z,3.286835
2023-08-31T23:25:17.493Z,4.690605
2023-08-31T23:30:16.539Z,4.264466
2023-08-31T23:35:16.456Z,3.593791
2023-08-31T23:40:16.888Z,3.554221
2023-08-31T23:45:16.745Z,3.794581
2023-08-31T23:50:16.785Z,3.624796
2023-08-31T23:55:16.240Z,4.208807
